createdAt,value
2023-03-01T00:01:49.819Z,26.06
2023-03-01T00:04:18.624Z,25.94
2023-03-01T00:06:48.429Z,26.04
2023-03-01T00:09:16.601Z,26.26
2023-03-01T00:11:45.730Z,26.50
2023-03-01T00:14:14.248Z,26.48
2023-03-01T00:16:47.548Z,26.30
2023-03-01T00:19:18.159Z,26.13
2023-03-01T00:21:46.183Z,26.04
2023-03-01T00:24:14.637Z,26.33
2023-03-01T00:26:42.624Z,26.32
2023-03-01T00:29:10.892Z,26.24
2023-03-01T00:31:40.063Z,26.68
2023-03-01T00:34:10.138Z,26.39
2023-03-01T00:36:39.947Z,26.05
2023-03-01T00:39:15.700Z,25.87
2023-03-01T00:41:46.066Z,25.83
2023-03-01T00:44:16.599Z,26.20
2023-03-01T00:46:44.726Z,26.66
2023-03-01T00:49:12.796Z,26.97
2023-03-01T00:51:42.637Z,27.01
2023-03-01T00:54:10.991Z,27.03
2023-03-01T00:56:41.190Z,26.92
2023-03-01T00:59:10.288Z,27.06
2023-03-01T01:01:39.289Z,26.51
2023-03-01T01:04:10.244Z,26.27
2023-03-01T01:06:45.859Z,26.34
2023-03-01T01:09:20.200Z,26.66
2023-03-01T01:11:49.837Z,27.34
2023-03-01T01:14:18.622Z,27.48
2023-03-01T01:16:46.959Z,27.53
2023-03-01T01:19:15.764Z,27.36
2023-03-01T01:21:44.401Z,28.02
2023-03-01T01:24:13.018Z,28.01
2023-03-01T01:26:42.240Z,27.93
2023-03-01T01:29:10.274Z,27.96
2023-03-01T01:31:39.559Z,28.20
2023-03-01T01:34:08.981Z,28.29
2023-03-01T01:36:37.128Z,28.22
2023-03-01T01:39:05.567Z,28.15
2023-03-01T01:41:33.831Z,27.91
2023-03-01T01:44:22.985Z,27.76
2023-03-01T01:46:57.527Z,27.83
2023-03-01T01:49:48.360Z,27.32
2023-03-01T01:52:22.575Z,26.99
2023-03-01T01:55:02.514Z,27.17
2023-03-01T01:57:48.397Z,26.99
2023-03-01T02:00:20.351Z,26.63
2023-03-01T02:02:50.368Z,26.88
2023-03-01T02:05:27.980Z,26.94
2023-03-01T02:07:58.078Z,26.77
2023-03-01T02:10:26.383Z,26.72
2023-03-01T02:12:54.698Z,26.78
2023-03-01T02:15:24.481Z,27.50
2023-03-01T02:17:54.584Z,27.51
2023-03-01T02:20:31.995Z,27.13
2023-03-01T02:23:00.121Z,27.33
2023-03-01T02:25:47.203Z,27.92
2023-03-01T02:28:35.115Z,27.94
2023-03-01T02:31:23.262Z,28.00
2023-03-01T02:33:51.502Z,27.90
2023-03-01T02:36:22.632Z,27.40
2023-03-01T02:38:53.165Z,27.88
2023-03-01T02:41:21.849Z,27.62
2023-03-01T02:43:50.027Z,27.24
2023-03-01T02:46:23.404Z,27.20
2023-03-01T02:48:56.646Z,27.22
2023-03-01T02:51:34.577Z,27.63
2023-03-01T02:54:53.906Z,27.93
2023-03-01T03:00:50.496Z,39.18
2023-03-01T03:03:20.951Z,33.49
2023-03-01T03:05:53.556Z,32.91
2023-03-01T03:08:25.285Z,32.29
2023-03-01T03:10:54.128Z,31.46
2023-03-01T03:13:23.213Z,31.05
2023-03-01T03:15:52.096Z,30.79
2023-03-01T03:18:20.238Z,31.11
2023-03-01T03:20:54.170Z,31.66
2023-03-01T03:23:22.333Z,31.21
2023-03-01T03:25:50.953Z,30.87
2023-03-01T03:28:19.208Z,30.67
2023-03-01T03:30:47.997Z,30.57
2023-03-01T03:33:16.106Z,30.57
2023-03-01T03:35:47.009Z,30.45
2023-03-01T03:38:17.085Z,29.75
2023-03-01T03:41:05.671Z,29.65
2023-03-01T03:43:35.912Z,29.04
2023-03-01T03:46:08.568Z,29.12
2023-03-01T03:48:41.874Z,29.27
2023-03-01T03:51:14.403Z,29.63
2023-03-01T03:53:45.854Z,29.60
2023-03-01T03:56:14.056Z,29.27
2023-03-01T03:58:43.162Z,29.15
2023-03-01T04:01:11.576Z,29.29
2023-03-01T04:03:42.991Z,29.29
2023-03-01T04:06:11.576Z,29.26
2023-03-01T04:08:42.017Z,29.29
2023-03-01T04:11:28.609Z,29.31
2023-03-01T04:13:59.280Z,29.48
2023-03-01T04:16:27.975Z,29.65
2023-03-01T04:18:56.423Z,29.75
2023-03-01T04:21:24.460Z,29.53
2023-03-01T04:23:54.445Z,29.66
2023-03-01T04:26:25.429Z,29.87
2023-03-01T04:28:53.812Z,30.00
2023-03-01T04:31:25.840Z,30.05
2023-03-01T04:33:55.702Z,29.85
2023-03-01T04:36:26.722Z,29.95
2023-03-01T04:38:55.307Z,29.92
2023-03-01T04:41:24.321Z,29.52
2023-03-01T04:43:53.930Z,29.61
2023-03-01T04:46:22.693Z,29.77
2023-03-01T04:48:56.075Z,29.69
2023-03-01T04:51:24.386Z,29.48
2023-03-01T04:53:52.468Z,29.36
2023-03-01T04:56:20.353Z,29.27
2023-03-01T04:58:48.392Z,29.59
2023-03-01T05:01:18.685Z,29.29
2023-03-01T05:03:48.748Z,29.12
2023-03-01T05:06:18.030Z,28.92
2023-03-01T05:08:46.621Z,28.79
2023-03-01T05:11:14.761Z,28.64
2023-03-01T05:13:44.551Z,29.02
2023-03-01T05:16:13.251Z,29.21
2023-03-01T05:18:42.623Z,28.86
2023-03-01T05:21:13.701Z,29.14
2023-03-01T05:23:44.990Z,29.14
2023-03-01T05:26:27.371Z,29.32
2023-03-01T05:29:00.447Z,29.73
2023-03-01T05:31:31.957Z,29.54
2023-03-01T05:34:00.246Z,29.62
2023-03-01T05:36:28.424Z,29.36
2023-03-01T05:38:56.829Z,29.16
2023-03-01T05:41:25.056Z,28.98
2023-03-01T05:43:54.186Z,28.58
2023-03-01T05:46:25.570Z,28.52
2023-03-01T05:48:54.388Z,28.67
2023-03-01T05:51:23.292Z,29.07
2023-03-01T05:53:51.320Z,28.73
2023-03-01T05:56:19.517Z,28.95
2023-03-01T05:58:49.416Z,28.89
2023-03-01T06:01:17.900Z,29.14
2023-03-01T06:03:48.075Z,28.92
2023-03-01T06:06:16.086Z,28.67
2023-03-01T06:08:50.308Z,28.59
2023-03-01T06:11:19.211Z,28.45
2023-03-01T06:13:47.918Z,28.58
2023-03-01T06:16:23.328Z,28.41
2023-03-01T06:18:51.644Z,28.33
2023-03-01T06:21:19.714Z,28.27
2023-03-01T06:23:48.703Z,28.32
2023-03-01T06:26:17.008Z,28.22
2023-03-01T06:28:47.263Z,28.33
2023-03-01T06:31:16.960Z,28.34
2023-03-01T06:33:45.779Z,28.36
2023-03-01T06:36:17.008Z,28.33
2023-03-01T06:38:46.240Z,28.43
2023-03-01T06:41:14.427Z,28.56
2023-03-01T06:43:42.484Z,28.62
2023-03-01T06:46:10.820Z,28.04
2023-03-01T06:48:38.919Z,28.17
2023-03-01T06:51:08.459Z,28.31
2023-03-01T06:53:41.468Z,28.52
2023-03-01T06:56:11.457Z,28.69
2023-03-01T06:58:42.580Z,29.19
2023-03-01T07:01:11.108Z,29.32
2023-03-01T07:03:39.804Z,29.20
2023-03-01T07:06:09.430Z,28.74
2023-03-01T07:08:38.298Z,28.43
2023-03-01T07:11:06.901Z,28.30
2023-03-01T07:13:44.681Z,28.19
2023-03-01T07:16:12.848Z,28.04
2023-03-01T07:18:41.650Z,27.61
2023-03-01T07:21:13.010Z,27.60
2023-03-01T07:23:45.037Z,27.29
2023-03-01T07:26:14.524Z,27.02
2023-03-01T07:28:47.502Z,27.01
2023-03-01T07:31:16.559Z,26.86
2023-03-01T07:33:46.169Z,26.84
2023-03-01T07:36:15.510Z,27.08
2023-03-01T07:38:45.891Z,27.30
2023-03-01T07:41:14.344Z,26.92
2023-03-01T07:43:43.571Z,27.35
2023-03-01T07:46:11.985Z,27.37
2023-03-01T07:48:43.740Z,27.06
2023-03-01T07:51:14.994Z,27.09
2023-03-01T07:53:42.924Z,26.92
2023-03-01T07:56:14.008Z,26.80
2023-03-01T07:58:44.991Z,27.08
2023-03-01T08:01:19.539Z,26.96
2023-03-01T08:03:48.405Z,27.09
2023-03-01T08:06:17.623Z,27.62
2023-03-01T08:08:46.060Z,27.54
2023-03-01T08:11:16.771Z,27.58
2023-03-01T08:14:05.171Z,27.19
2023-03-01T08:16:36.542Z,27.30
2023-03-01T08:19:09.340Z,27.08
2023-03-01T08:21:38.086Z,26.61
2023-03-01T08:24:07.722Z,26.42
2023-03-01T08:26:35.842Z,26.21
2023-03-01T08:29:04.046Z,26.19
2023-03-01T08:31:38.126Z,26.58
2023-03-01T08:34:14.502Z,26.09
2023-03-01T08:36:44.752Z,26.37
2023-03-01T08:39:15.271Z,26.38
2023-03-01T08:41:43.749Z,25.94
2023-03-01T08:44:12.869Z,26.40
2023-03-01T08:46:43.915Z,26.52
2023-03-01T08:49:14.838Z,26.41
2023-03-01T08:51:45.453Z,26.10
2023-03-01T08:54:21.441Z,26.04
2023-03-01T08:56:50.681Z,26.11
2023-03-01T08:59:19.413Z,26.06
2023-03-01T09:01:47.500Z,25.71
2023-03-01T09:04:15.964Z,25.87
2023-03-01T09:06:44.655Z,26.03
2023-03-01T09:09:16.623Z,25.87
2023-03-01T09:11:47.273Z,25.91
2023-03-01T09:14:18.833Z,26.17
2023-03-01T09:16:47.632Z,26.14
2023-03-01T09:19:15.914Z,26.04
2023-03-01T09:21:53.457Z,26.12
2023-03-01T09:24:22.613Z,26.39
2023-03-01T09:26:51.857Z,26.27
2023-03-01T09:29:20.716Z,26.09
2023-03-01T09:31:48.972Z,25.81
2023-03-01T09:34:20.486Z,25.65
2023-03-01T09:36:48.734Z,25.40
2023-03-01T09:39:18.963Z,25.34
2023-03-01T09:42:04.131Z,25.29
2023-03-01T09:44:42.960Z,25.08
2023-03-01T09:47:21.439Z,24.52
2023-03-01T09:49:55.794Z,24.20
2023-03-01T09:53:13.528Z,24.32
2023-03-01T09:56:19.995Z,24.01
2023-03-01T09:58:58.327Z,24.12
2023-03-01T10:01:39.861Z,23.97
2023-03-01T10:04:46.152Z,23.93
2023-03-01T10:07:23.043Z,23.95
2023-03-01T10:09:52.345Z,24.03
2023-03-01T10:12:25.751Z,24.12
2023-03-01T10:14:56.876Z,24.14
2023-03-01T10:17:45.857Z,23.96
2023-03-01T10:20:18.574Z,24.08
2023-03-01T10:22:52.410Z,24.11
2023-03-01T10:25:24.184Z,24.34
2023-03-01T10:27:54.540Z,24.54
2023-03-01T10:30:31.091Z,24.96
2023-03-01T10:32:59.507Z,24.72
2023-03-01T10:35:33.464Z,24.53
2023-03-01T10:38:06.796Z,24.92
2023-03-01T10:40:35.765Z,24.58
2023-03-01T10:43:06.072Z,24.92
2023-03-01T10:45:40.279Z,25.07
2023-03-01T10:48:20.505Z,25.18
2023-03-01T10:50:50.174Z,25.21
2023-03-01T10:53:22.105Z,25.40
2023-03-01T10:55:50.061Z,25.63
2023-03-01T10:58:22.674Z,25.55
2023-03-01T11:01:04.658Z,25.69
2023-03-01T11:03:38.580Z,25.78
2023-03-01T11:06:12.408Z,25.67
2023-03-01T11:08:41.711Z,25.68
2023-03-01T11:11:35.773Z,25.39
2023-03-01T11:14:27.139Z,25.26
2023-03-01T11:17:29.099Z,25.39
2023-03-01T11:20:15.656Z,25.35
2023-03-01T11:22:56.844Z,25.10
2023-03-01T11:25:33.947Z,25.36
2023-03-01T11:28:06.539Z,25.60
2023-03-01T11:30:39.900Z,26.08
2023-03-01T11:33:18.421Z,25.96
2023-03-01T11:35:55.595Z,26.13
2023-03-01T11:38:27.445Z,25.88
2023-03-01T11:41:01.064Z,25.89
2023-03-01T11:43:32.740Z,25.69
2023-03-01T11:46:25.459Z,25.68
2023-03-01T11:49:19.740Z,25.41
2023-03-01T11:52:38.791Z,25.64
2023-03-01T11:55:31.268Z,25.36
2023-03-01T11:58:14.686Z,25.38
2023-03-01T12:00:48.595Z,25.59
2023-03-01T12:03:46.274Z,25.69
2023-03-01T12:06:46.583Z,25.88
2023-03-01T12:09:17.854Z,25.74
2023-03-01T12:12:04.611Z,25.65
2023-03-01T12:15:00.646Z,26.23
2023-03-01T12:18:03.932Z,26.15
2023-03-01T12:20:55.804Z,26.16
2023-03-01T12:23:58.750Z,26.35
2023-03-01T12:26:45.672Z,26.24
2023-03-01T12:29:30.870Z,25.85
2023-03-01T12:32:27.004Z,25.54
2023-03-01T12:35:30.516Z,25.45
2023-03-01T12:38:29.800Z,25.54
2023-03-01T12:41:20.917Z,25.47
2023-03-01T12:44:14.899Z,25.61
2023-03-01T12:47:11.461Z,25.36
2023-03-01T12:49:50.606Z,25.51
2023-03-01T12:52:39.077Z,25.47
2023-03-01T12:55:19.476Z,25.55
2023-03-01T12:57:52.144Z,25.56
2023-03-01T13:00:23.188Z,25.91
2023-03-01T13:03:32.592Z,25.93
2023-03-01T13:06:54.302Z,25.84
2023-03-01T13:09:52.712Z,25.88
2023-03-01T13:12:46.378Z,25.75
2023-03-01T13:15:23.422Z,25.59
2023-03-01T13:17:54.215Z,25.66
2023-03-01T13:20:26.506Z,25.55
2023-03-01T13:23:25.780Z,25.70
2023-03-01T13:26:00.170Z,25.36
2023-03-01T13:28:47.496Z,25.28
2023-03-01T13:31:16.320Z,25.46
2023-03-01T13:33:51.282Z,25.90
2023-03-01T13:36:28.811Z,25.95
2023-03-01T13:38:59.065Z,25.84
2023-03-01T13:41:40.675Z,25.58
2023-03-01T13:44:27.490Z,26.11
2023-03-01T13:47:16.464Z,25.86
2023-03-01T13:49:55.385Z,25.82
2023-03-01T13:52:53.550Z,25.67
2023-03-01T13:55:25.891Z,25.45
2023-03-01T13:57:58.972Z,25.68
2023-03-01T14:00:39.905Z,25.58
2023-03-01T14:03:18.132Z,25.70
2023-03-01T14:06:21.092Z,25.59
2023-03-01T14:08:51.017Z,25.53
2023-03-01T14:11:31.862Z,25.28
2023-03-01T14:14:34.654Z,25.37
2023-03-01T14:17:03.464Z,25.23
2023-03-01T14:19:33.649Z,25.27
2023-03-01T14:22:05.628Z,25.07
2023-03-01T14:24:34.034Z,24.79
2023-03-01T14:27:02.659Z,24.90
2023-03-01T14:29:38.644Z,25.64
2023-03-01T14:32:25.548Z,25.66
2023-03-01T14:34:54.349Z,25.43
2023-03-01T14:37:29.417Z,25.69
2023-03-01T14:39:58.275Z,25.56
2023-03-01T14:42:32.371Z,25.40
2023-03-01T14:45:06.073Z,25.32
2023-03-01T14:47:36.167Z,25.02
2023-03-01T14:50:26.920Z,24.72
2023-03-01T14:52:58.434Z,24.80
2023-03-01T14:55:28.785Z,24.83
2023-03-01T14:57:57.249Z,25.26
2023-03-01T15:00:28.426Z,25.49
2023-03-01T15:02:58.082Z,25.25
2023-03-01T15:05:30.957Z,25.19
2023-03-01T15:08:01.445Z,25.31
2023-03-01T15:10:35.790Z,25.08
2023-03-01T15:13:25.340Z,25.03
2023-03-01T15:18:21.643Z,29.85
2023-03-01T15:20:49.921Z,27.05
2023-03-01T15:23:29.114Z,26.78
2023-03-01T15:25:57.680Z,26.53
2023-03-01T15:28:32.103Z,26.15
2023-03-01T15:31:03.486Z,26.47
2023-03-01T15:33:34.635Z,26.53
2023-03-01T15:36:34.417Z,26.64
2023-03-01T15:39:02.977Z,26.44
2023-03-01T15:41:46.408Z,26.40
2023-03-01T15:44:42.484Z,26.40
2023-03-01T15:47:30.982Z,26.33
2023-03-01T15:50:00.230Z,26.28
2023-03-01T15:52:36.275Z,26.40
2023-03-01T15:55:07.400Z,26.51
2023-03-01T15:57:35.505Z,26.44
2023-03-01T16:00:12.423Z,26.28
2023-03-01T16:02:41.522Z,26.32
2023-03-01T16:05:22.154Z,26.49
2023-03-01T16:07:50.459Z,26.69
2023-03-01T16:10:20.378Z,27.00
2023-03-01T16:12:49.209Z,27.48
2023-03-01T16:15:25.558Z,27.54
2023-03-01T16:17:53.658Z,27.75
2023-03-01T16:20:29.076Z,27.18
2023-03-01T16:23:03.091Z,27.33
2023-03-01T16:25:33.550Z,27.52
2023-03-01T16:28:10.035Z,27.44
2023-03-01T16:30:41.359Z,27.58
2023-03-01T16:33:26.758Z,27.54
2023-03-01T16:35:59.205Z,27.69
2023-03-01T16:38:27.275Z,27.56
2023-03-01T16:40:55.657Z,27.54
2023-03-01T16:43:23.606Z,27.08
2023-03-01T16:45:52.239Z,27.25
2023-03-01T16:48:20.889Z,27.35
2023-03-01T16:51:00.000Z,27.59
2023-03-01T16:53:48.164Z,27.82
2023-03-01T16:56:19.146Z,27.90
2023-03-01T16:58:47.965Z,27.92
2023-03-01T17:01:24.527Z,27.82
2023-03-01T17:03:53.177Z,27.66
2023-03-01T17:06:23.046Z,27.58
2023-03-01T17:08:52.363Z,27.66
2023-03-01T17:11:20.929Z,27.85
2023-03-01T17:13:56.606Z,27.86
2023-03-01T17:16:25.595Z,28.11
2023-03-01T17:18:53.683Z,27.99
2023-03-01T17:21:21.696Z,28.04
2023-03-01T17:23:50.580Z,28.31
2023-03-01T17:26:19.902Z,28.23
2023-03-01T17:28:52.382Z,28.06
2023-03-01T17:31:20.823Z,28.29
2023-03-01T17:33:50.255Z,28.64
2023-03-01T17:36:19.133Z,28.86
2023-03-01T17:38:49.863Z,28.67
2023-03-01T17:41:19.073Z,28.39
2023-03-01T17:43:47.119Z,28.42
2023-03-01T17:46:16.335Z,28.16
2023-03-01T17:48:44.664Z,28.16
2023-03-01T17:51:33.446Z,27.91
2023-03-01T17:54:01.702Z,28.05
2023-03-01T17:56:32.114Z,28.52
2023-03-01T17:59:07.208Z,28.55
2023-03-01T18:01:37.620Z,28.37
2023-03-01T18:04:05.912Z,28.30
2023-03-01T18:06:35.694Z,28.28
2023-03-01T18:09:04.915Z,28.57
2023-03-01T18:11:35.722Z,28.77
2023-03-01T18:14:05.576Z,28.89
2023-03-01T18:16:34.543Z,28.63
2023-03-01T18:19:04.798Z,28.43
2023-03-01T18:21:34.458Z,28.39
2023-03-01T18:24:04.103Z,28.23
2023-03-01T18:26:33.988Z,28.41
2023-03-01T18:29:04.788Z,28.50
2023-03-01T18:31:37.326Z,28.44
2023-03-01T18:34:05.483Z,28.37
2023-03-01T18:36:35.548Z,28.32
2023-03-01T18:39:05.423Z,28.31
2023-03-01T18:41:33.817Z,28.45
2023-03-01T18:44:06.615Z,28.42
2023-03-01T18:46:38.903Z,28.23
2023-03-01T18:49:07.805Z,28.43
2023-03-01T18:51:36.806Z,28.34
2023-03-01T18:54:05.238Z,28.66
2023-03-01T18:56:34.434Z,28.62
2023-03-01T18:59:04.180Z,28.67
2023-03-01T19:01:36.606Z,28.81
2023-03-01T19:04:05.479Z,28.92
2023-03-01T19:06:35.518Z,28.88
2023-03-01T19:09:08.769Z,29.16
2023-03-01T19:11:38.852Z,29.14
2023-03-01T19:14:07.222Z,29.06
2023-03-01T19:16:40.373Z,28.75
2023-03-01T19:19:13.998Z,28.85
2023-03-01T19:21:42.076Z,28.89
2023-03-01T19:24:11.173Z,29.22
2023-03-01T19:26:42.318Z,29.21
2023-03-01T19:29:11.641Z,29.21
2023-03-01T19:31:39.825Z,29.24
2023-03-01T19:34:12.393Z,29.17
2023-03-01T19:36:44.669Z,29.39
2023-03-01T19:39:13.931Z,29.33
2023-03-01T19:41:43.502Z,29.13
2023-03-01T19:44:12.751Z,29.23
2023-03-01T19:46:41.228Z,29.51
2023-03-01T19:49:09.830Z,29.60
2023-03-01T19:51:39.706Z,29.55
2023-03-01T19:54:10.109Z,29.56
2023-03-01T19:56:38.859Z,29.41
2023-03-01T19:59:06.966Z,29.40
2023-03-01T20:01:38.021Z,29.33
2023-03-01T20:04:07.124Z,29.43
2023-03-01T20:06:39.498Z,29.55
2023-03-01T20:09:21.371Z,29.13
2023-03-01T20:11:56.515Z,28.66
2023-03-01T20:14:27.483Z,28.54
2023-03-01T20:16:55.837Z,28.92
2023-03-01T20:19:24.342Z,28.92
2023-03-01T20:21:53.723Z,28.92
2023-03-01T20:24:22.781Z,28.88
2023-03-01T20:26:52.050Z,28.68
2023-03-01T20:29:22.157Z,28.64
2023-03-01T20:31:50.567Z,28.77
2023-03-01T20:34:23.160Z,28.34
2023-03-01T20:37:03.387Z,28.29
2023-03-01T20:39:36.664Z,28.10
2023-03-01T20:42:08.964Z,28.01
2023-03-01T20:44:43.266Z,27.88
2023-03-01T20:47:21.266Z,27.88
2023-03-01T20:49:52.117Z,27.84
2023-03-01T20:52:27.418Z,27.87
2023-03-01T20:54:57.916Z,27.88
2023-03-01T20:57:30.116Z,28.08
2023-03-01T20:59:58.519Z,28.12
2023-03-01T21:02:29.861Z,28.08
2023-03-01T21:04:58.544Z,28.10
2023-03-01T21:07:26.521Z,28.10
2023-03-01T21:09:54.514Z,27.97
2023-03-01T21:12:22.652Z,27.65
2023-03-01T21:14:50.590Z,27.68
2023-03-01T21:17:25.321Z,27.60
2023-03-01T21:19:53.373Z,27.67
2023-03-01T21:22:21.790Z,27.69
2023-03-01T21:24:51.161Z,27.47
2023-03-01T21:27:19.389Z,27.45
2023-03-01T21:29:47.873Z,27.30
2023-03-01T21:32:16.089Z,27.19
2023-03-01T21:34:44.810Z,27.20
2023-03-01T21:37:13.403Z,27.11
2023-03-01T21:39:42.088Z,26.90
2023-03-01T21:42:14.050Z,26.94
2023-03-01T21:44:42.818Z,27.03
2023-03-01T21:47:10.818Z,26.96
2023-03-01T21:49:39.394Z,27.07
2023-03-01T21:52:07.379Z,27.34
2023-03-01T21:54:39.321Z,27.32
2023-03-01T21:57:07.768Z,27.53
2023-03-01T21:59:37.412Z,27.51
2023-03-01T22:02:05.749Z,27.40
2023-03-01T22:04:35.064Z,27.25
2023-03-01T22:07:03.887Z,27.42
2023-03-01T22:09:35.115Z,27.50
2023-03-01T22:12:04.002Z,27.38
2023-03-01T22:14:32.833Z,27.32
2023-03-01T22:17:03.109Z,26.88
2023-03-01T22:19:32.271Z,26.79
2023-03-01T22:22:00.604Z,26.80
2023-03-01T22:24:32.755Z,26.62
2023-03-01T22:27:01.348Z,26.82
2023-03-01T22:29:34.199Z,26.65
2023-03-01T22:32:02.617Z,26.88
2023-03-01T22:34:30.825Z,26.37
2023-03-01T22:36:59.395Z,25.99
2023-03-01T22:39:27.466Z,26.06
2023-03-01T22:41:56.434Z,25.83
2023-03-01T22:44:24.828Z,25.74
2023-03-01T22:46:57.116Z,25.90
2023-03-01T22:49:25.914Z,26.08
2023-03-01T22:51:54.275Z,25.94
2023-03-01T22:54:22.388Z,26.01
2023-03-01T22:56:50.798Z,25.81
2023-03-01T22:59:23.171Z,25.81
2023-03-01T23:01:52.367Z,25.65
2023-03-01T23:04:20.911Z,25.93
2023-03-01T23:06:50.404Z,25.89
2023-03-01T23:09:20.798Z,25.84
2023-03-01T23:11:50.576Z,25.78
2023-03-01T23:14:19.403Z,25.91
2023-03-01T23:16:49.239Z,26.27
2023-03-01T23:19:18.881Z,26.30
2023-03-01T23:21:50.056Z,26.39
2023-03-01T23:24:19.373Z,26.36
2023-03-01T23:26:53.261Z,26.32
2023-03-01T23:29:22.491Z,26.32
2023-03-01T23:31:50.537Z,26.15
2023-03-01T23:34:19.260Z,26.16
2023-03-01T23:36:47.970Z,26.08
2023-03-01T23:39:17.093Z,26.06
2023-03-01T23:41:45.342Z,25.87
2023-03-01T23:44:17.542Z,26.11
2023-03-01T23:46:46.360Z,26.82
2023-03-01T23:49:16.407Z,27.13
2023-03-01T23:51:47.745Z,27.13
2023-03-01T23:54:20.475Z,27.06
2023-03-01T23:56:48.854Z,27.08
2023-03-01T23:59:19.283Z,27.25
